Accueil
METAR-TAF:

METAR-TAF

Aéroports :

Jasper, Alabama, États-Unis

latitude: 33-54-07N, longitude: 087-18-51W, altitude: 147 m

Observation

Le bulletin a été fait il y a 12 minutes, à 20:15 UTC
Vent calme
Température 29°C
Humidité 70%
Pression 1016 hPa
Visibilité: 16.1 km
Quelques nuages à une hauteur de 3900 ft
Quelques nuages à une hauteur de 8500 ft

METAR: KJFX 222015Z AUTO 00000KT 10SM FEW039 FEW085 29/23 A3000 RMK AO2

Heure: 15:27 (20:27 UTC)


TAF: absent

Observations et prévisions météorologiques de plus de 4000 aéroports (messages METAR et TAF).

Les stations disponibles sont représentées par des disques jaunes et rouges sur la carte.

Passer la souris dessus pour voir le nom de la station.

Cliquer dessus pour voir les observations et prévisions météorologiques.

Pour changer de carte: cliquez sur les boutons verts avec une croix noire pour zoomer, sur le bouton vert avec un tiret pour effectuer un zoom arrière, ou sur les flèches vertes pour les cartes adjacentes.


METAR-TAF: